createdAt,value
2023-11-13T00:01:25.762Z,4.40
2023-11-13T00:03:53.765Z,4.36
2023-11-13T00:06:21.486Z,4.36
2023-11-13T00:08:49.124Z,4.33
2023-11-13T00:11:17.039Z,4.31
2023-11-13T00:13:45.503Z,4.34
2023-11-13T00:16:13.376Z,4.32
2023-11-13T00:18:43.252Z,4.36
2023-11-13T00:21:12.312Z,4.36
2023-11-13T00:23:40.076Z,4.40
2023-11-13T00:26:07.744Z,4.41
2023-11-13T00:28:36.976Z,4.45
2023-11-13T00:31:05.211Z,4.39
2023-11-13T00:33:32.905Z,4.46
2023-11-13T00:36:02.048Z,4.41
2023-11-13T00:38:29.682Z,4.39
2023-11-13T00:40:59.223Z,4.39
2023-11-13T00:43:29.064Z,4.41
2023-11-13T00:45:56.789Z,4.41
2023-11-13T00:48:24.485Z,4.43
2023-11-13T00:50:52.243Z,4.46
2023-11-13T00:53:21.295Z,4.46
2023-11-13T00:55:49.713Z,4.49
2023-11-13T00:58:17.806Z,4.45
2023-11-13T01:00:45.736Z,4.40
2023-11-13T01:03:13.467Z,4.41
2023-11-13T01:05:41.153Z,4.43
2023-11-13T01:08:08.793Z,4.39
2023-11-13T01:10:37.858Z,4.47
2023-11-13T01:13:05.646Z,4.49
2023-11-13T01:15:33.444Z,4.43
2023-11-13T01:18:01.308Z,4.41
2023-11-13T01:20:29.208Z,4.41
2023-11-13T01:22:57.246Z,4.36
2023-11-13T01:25:24.992Z,4.33
2023-11-13T01:27:54.034Z,4.28
2023-11-13T01:30:22.021Z,4.35
2023-11-13T01:32:49.720Z,4.39
2023-11-13T01:35:17.452Z,4.35
2023-11-13T01:37:45.602Z,4.36
2023-11-13T01:40:13.880Z,4.19
2023-11-13T01:42:41.569Z,4.18
2023-11-13T01:45:11.202Z,4.21
2023-11-13T01:47:39.598Z,4.18
2023-11-13T01:50:08.218Z,4.12
2023-11-13T01:52:35.938Z,4.13
2023-11-13T01:55:04.260Z,4.08
2023-11-13T01:57:32.749Z,4.04
2023-11-13T02:00:01.035Z,4.05
2023-11-13T02:02:30.156Z,4.13
2023-11-13T02:04:57.871Z,4.12
2023-11-13T02:07:25.534Z,4.10
2023-11-13T02:09:53.373Z,4.00
2023-11-13T02:12:21.453Z,4.01
2023-11-13T02:14:49.200Z,4.02
2023-11-13T02:17:16.984Z,3.99
2023-11-13T02:19:46.900Z,3.96
2023-11-13T02:22:14.806Z,3.95
2023-11-13T02:24:44.039Z,3.97
2023-11-13T02:27:11.815Z,3.98
2023-11-13T02:29:39.570Z,3.99
2023-11-13T02:32:08.482Z,3.99
2023-11-13T02:34:36.159Z,4.05
2023-11-13T02:37:05.394Z,3.94
2023-11-13T02:39:33.509Z,3.96
2023-11-13T02:42:03.171Z,3.97
2023-11-13T02:44:31.162Z,4.05
2023-11-13T02:46:58.830Z,4.08
2023-11-13T02:49:26.579Z,4.12
2023-11-13T02:51:54.249Z,4.02
2023-11-13T02:54:22.117Z,3.96
2023-11-13T02:56:49.795Z,3.86
2023-11-13T02:59:18.749Z,3.92
2023-11-13T03:01:46.495Z,3.91
2023-11-13T03:04:14.286Z,3.84
2023-11-13T03:06:41.952Z,3.87
2023-11-13T03:09:10.828Z,3.87
2023-11-13T03:11:38.812Z,3.90
2023-11-13T03:14:06.602Z,3.89
2023-11-13T03:16:35.896Z,3.89
2023-11-13T03:19:03.682Z,3.94
2023-11-13T03:21:31.352Z,3.90
2023-11-13T03:23:59.164Z,3.83
2023-11-13T03:26:30.041Z,3.86
2023-11-13T03:28:58.021Z,3.83
2023-11-13T03:31:25.768Z,3.89
2023-11-13T03:33:55.670Z,3.89
2023-11-13T03:36:23.338Z,3.92
2023-11-13T03:38:51.004Z,3.97
2023-11-13T03:41:19.195Z,4.04
2023-11-13T03:43:47.272Z,4.01
2023-11-13T03:46:14.968Z,4.01
2023-11-13T03:48:42.633Z,4.04
2023-11-13T03:51:11.794Z,4.13
2023-11-13T03:53:39.403Z,4.08
2023-11-13T03:56:08.378Z,4.04
2023-11-13T03:58:36.094Z,4.14
2023-11-13T04:01:04.811Z,4.10
2023-11-13T04:03:32.505Z,4.01
2023-11-13T04:06:00.208Z,4.12
2023-11-13T04:08:29.713Z,4.02
2023-11-13T04:10:57.830Z,4.01
2023-11-13T04:13:26.285Z,4.02
2023-11-13T04:15:54.123Z,4.04
2023-11-13T04:18:22.657Z,4.07
2023-11-13T04:20:50.301Z,4.09
2023-11-13T04:23:17.985Z,4.07
2023-11-13T04:25:48.548Z,4.05
2023-11-13T04:28:16.524Z,4.06
2023-11-13T04:30:44.288Z,4.12
2023-11-13T04:33:12.065Z,4.13
2023-11-13T04:35:40.160Z,4.15
2023-11-13T04:38:07.810Z,4.16
2023-11-13T04:40:35.492Z,4.21
2023-11-13T04:43:07.112Z,4.19
2023-11-13T04:45:36.151Z,4.21
2023-11-13T04:48:04.294Z,4.21
2023-11-13T04:50:31.950Z,4.20
2023-11-13T04:52:59.636Z,4.24
2023-11-13T04:55:27.340Z,4.25
2023-11-13T04:57:55.002Z,4.26
2023-11-13T05:00:24.029Z,4.27
2023-11-13T05:02:51.773Z,4.27
2023-11-13T05:05:19.476Z,4.22
2023-11-13T05:07:47.127Z,4.23
2023-11-13T05:10:14.859Z,4.24
2023-11-13T05:12:42.504Z,4.26
2023-11-13T05:15:10.975Z,4.28
2023-11-13T05:17:40.042Z,4.28
2023-11-13T05:20:08.944Z,4.27
2023-11-13T05:22:36.734Z,4.26
2023-11-13T05:25:05.014Z,4.23
2023-11-13T05:27:32.802Z,4.23
2023-11-13T05:30:00.661Z,4.25
2023-11-13T05:32:28.512Z,4.25
2023-11-13T05:34:57.579Z,4.23
2023-11-13T05:37:25.205Z,4.22
2023-11-13T05:39:52.914Z,4.28
2023-11-13T05:42:24.281Z,4.27
2023-11-13T05:44:52.234Z,4.22
2023-11-13T05:47:20.001Z,4.21
2023-11-13T05:49:48.518Z,4.20
2023-11-13T05:52:18.760Z,4.20
2023-11-13T05:54:46.594Z,4.19
2023-11-13T05:57:14.373Z,4.20
2023-11-13T05:59:42.113Z,4.21
2023-11-13T06:02:12.716Z,4.22
2023-11-13T06:04:44.761Z,4.23
2023-11-13T06:07:12.821Z,4.25
2023-11-13T06:09:43.518Z,4.24
2023-11-13T06:12:11.607Z,4.27
2023-11-13T06:14:40.597Z,4.25
2023-11-13T06:17:09.022Z,4.28
2023-11-13T06:19:36.751Z,4.27
2023-11-13T06:22:04.695Z,4.25
2023-11-13T06:24:32.342Z,4.28
2023-11-13T06:27:01.474Z,4.28
2023-11-13T06:29:29.144Z,4.28
2023-11-13T06:31:57.481Z,4.35
2023-11-13T06:34:25.336Z,4.33
2023-11-13T06:36:56.141Z,4.32
2023-11-13T06:39:24.561Z,4.34
2023-11-13T06:41:53.625Z,4.36
2023-11-13T06:44:22.660Z,4.35
2023-11-13T06:46:50.405Z,4.36
2023-11-13T06:49:19.881Z,4.36
2023-11-13T06:51:47.702Z,4.40
2023-11-13T06:54:15.495Z,4.47
2023-11-13T06:56:43.429Z,4.43
2023-11-13T06:59:12.181Z,4.43
2023-11-13T07:01:42.150Z,4.46
2023-11-13T07:04:11.189Z,4.47
2023-11-13T07:06:39.207Z,4.49
2023-11-13T07:09:11.901Z,4.50
2023-11-13T07:11:44.099Z,4.53
2023-11-13T07:14:11.887Z,4.54
2023-11-13T07:16:41.953Z,4.50
2023-11-13T07:19:10.472Z,4.50
2023-11-13T07:21:39.266Z,4.48
2023-11-13T07:24:09.111Z,4.49
2023-11-13T07:26:37.027Z,4.50
2023-11-13T07:29:05.374Z,4.51
2023-11-13T07:31:33.430Z,4.51
2023-11-13T07:34:02.576Z,4.49
2023-11-13T07:36:32.264Z,4.49
2023-11-13T07:39:00.364Z,4.52
2023-11-13T07:41:28.028Z,4.52
2023-11-13T07:43:57.614Z,4.54
2023-11-13T07:46:25.343Z,4.55
2023-11-13T07:48:53.053Z,4.55
2023-11-13T07:51:22.020Z,4.59
2023-11-13T07:53:51.157Z,4.60
2023-11-13T07:56:20.611Z,4.61
2023-11-13T07:58:48.356Z,4.62
2023-11-13T08:01:17.807Z,4.67
2023-11-13T08:03:45.534Z,4.65
2023-11-13T08:06:14.127Z,4.65
2023-11-13T08:08:43.097Z,4.64
2023-11-13T08:11:11.784Z,4.61
2023-11-13T08:13:39.480Z,4.64
2023-11-13T08:16:09.527Z,4.66
2023-11-13T08:18:37.216Z,4.62
2023-11-13T08:21:05.182Z,4.61
2023-11-13T08:23:32.873Z,4.65
2023-11-13T08:26:02.023Z,4.71
2023-11-13T08:28:33.007Z,4.72
2023-11-13T08:31:04.893Z,4.74
2023-11-13T08:33:35.022Z,4.73
2023-11-13T08:36:05.349Z,4.76
2023-11-13T08:38:32.976Z,4.74
2023-11-13T08:41:01.971Z,4.77
2023-11-13T08:43:30.988Z,4.77
2023-11-13T08:46:01.235Z,4.83
2023-11-13T08:48:29.751Z,4.80
2023-11-13T08:51:01.045Z,4.82
2023-11-13T08:53:29.868Z,4.87
2023-11-13T08:55:58.327Z,4.91
2023-11-13T08:58:27.516Z,4.88
2023-11-13T09:00:55.429Z,4.86
2023-11-13T09:03:23.232Z,4.86
2023-11-13T09:05:51.383Z,4.86
2023-11-13T09:08:19.087Z,4.85
2023-11-13T09:10:46.844Z,4.85
2023-11-13T09:13:14.915Z,4.88
2023-11-13T09:15:45.283Z,4.90
2023-11-13T09:18:13.820Z,4.92
2023-11-13T09:20:43.668Z,4.86
2023-11-13T09:23:11.750Z,4.94
2023-11-13T09:25:39.627Z,4.96
2023-11-13T09:28:08.884Z,4.98
2023-11-13T09:30:36.786Z,4.97
2023-11-13T09:33:08.213Z,4.99
2023-11-13T09:35:35.941Z,5.01
2023-11-13T09:38:03.555Z,5.00
2023-11-13T09:40:35.785Z,4.98
2023-11-13T09:43:09.018Z,4.99
2023-11-13T09:45:38.422Z,5.00
2023-11-13T09:48:09.541Z,5.03
2023-11-13T09:50:39.297Z,5.04
2023-11-13T09:53:07.550Z,5.09
2023-11-13T09:55:35.646Z,5.14
2023-11-13T09:58:03.517Z,5.14
2023-11-13T10:00:34.087Z,5.15
2023-11-13T10:03:02.374Z,5.15
2023-11-13T10:05:33.200Z,5.16
2023-11-13T10:08:01.669Z,5.14
2023-11-13T10:10:30.663Z,5.15
2023-11-13T10:13:01.786Z,5.18
2023-11-13T10:15:30.582Z,5.20
2023-11-13T10:18:00.049Z,5.20
2023-11-13T10:20:28.689Z,5.24
2023-11-13T10:23:08.066Z,5.27
2023-11-13T10:25:42.597Z,5.27
2023-11-13T10:28:10.689Z,5.36
2023-11-13T10:30:55.104Z,5.40
2023-11-13T10:33:24.134Z,5.43
2023-11-13T10:35:52.197Z,5.44
2023-11-13T10:38:22.440Z,5.47
2023-11-13T10:40:57.448Z,5.50
2023-11-13T10:43:33.431Z,5.54
2023-11-13T10:46:02.871Z,5.59
2023-11-13T10:48:33.731Z,5.64
2023-11-13T10:51:05.716Z,5.67
2023-11-13T10:53:36.877Z,5.71
2023-11-13T10:56:06.505Z,5.72
2023-11-13T10:58:34.389Z,5.77
2023-11-13T11:01:04.148Z,5.78
2023-11-13T11:03:33.863Z,5.80
2023-11-13T11:06:07.735Z,5.84
2023-11-13T11:08:38.626Z,5.86
2023-11-13T11:11:07.972Z,5.87
2023-11-13T11:13:37.166Z,5.94
2023-11-13T11:16:25.164Z,5.97
2023-11-13T11:18:57.858Z,5.98
2023-11-13T11:21:41.255Z,5.99
2023-11-13T11:24:14.178Z,6.02
2023-11-13T11:26:51.772Z,6.04
2023-11-13T11:29:32.908Z,6.05
2023-11-13T11:32:00.943Z,6.07
2023-11-13T11:34:32.167Z,6.11
2023-11-13T11:37:03.268Z,6.12
2023-11-13T11:39:45.731Z,6.15
2023-11-13T11:42:18.149Z,6.22
2023-11-13T11:45:00.271Z,6.23
2023-11-13T11:47:29.484Z,6.25
2023-11-13T11:49:59.152Z,6.28
2023-11-13T11:52:43.157Z,6.30
2023-11-13T11:55:15.134Z,6.32
2023-11-13T11:57:46.408Z,6.33
2023-11-13T12:00:17.156Z,6.34
2023-11-13T12:02:45.532Z,6.36
2023-11-13T12:05:14.743Z,6.35
2023-11-13T12:07:42.809Z,6.35
2023-11-13T12:10:13.400Z,6.32
2023-11-13T12:12:42.792Z,6.32
2023-11-13T12:15:12.080Z,6.34
2023-11-13T12:17:40.817Z,6.37
2023-11-13T12:20:18.106Z,6.35
2023-11-13T12:22:49.619Z,6.37
2023-11-13T12:25:18.408Z,6.39
2023-11-13T12:27:47.458Z,6.42
2023-11-13T12:30:17.791Z,6.43
2023-11-13T12:32:46.266Z,6.44
2023-11-13T12:35:14.281Z,6.44
2023-11-13T12:37:43.390Z,6.45
2023-11-13T12:40:12.547Z,6.41
2023-11-13T12:42:41.858Z,6.40
2023-11-13T12:45:13.204Z,6.42
2023-11-13T12:47:45.746Z,6.40
2023-11-13T12:50:16.714Z,6.37
2023-11-13T12:52:47.724Z,6.34
2023-11-13T12:55:17.190Z,6.28
2023-11-13T12:57:46.427Z,6.28
2023-11-13T13:00:17.321Z,6.30
2023-11-13T13:02:48.110Z,6.32
2023-11-13T13:05:26.190Z,6.34
2023-11-13T13:07:59.110Z,6.35
2023-11-13T13:10:27.057Z,6.33
2023-11-13T13:12:56.123Z,6.33
2023-11-13T13:15:27.934Z,6.35
2023-11-13T13:17:55.911Z,6.39
2023-11-13T13:20:30.917Z,6.33
2023-11-13T13:22:59.647Z,6.40
2023-11-13T13:25:31.097Z,6.40
2023-11-13T13:28:00.418Z,6.39
2023-11-13T13:30:33.326Z,6.41
2023-11-13T13:33:02.835Z,6.40
2023-11-13T13:35:30.716Z,6.40
2023-11-13T13:37:58.405Z,6.40
2023-11-13T13:40:26.988Z,6.41
2023-11-13T13:43:00.387Z,6.40
2023-11-13T13:45:30.358Z,6.39
2023-11-13T13:47:58.624Z,6.37
2023-11-13T13:50:26.731Z,6.38
2023-11-13T13:52:57.898Z,6.38
2023-11-13T13:55:29.268Z,6.40
2023-11-13T13:58:02.565Z,6.41
2023-11-13T14:00:37.898Z,6.42
2023-11-13T14:03:12.153Z,6.43
2023-11-13T14:05:44.624Z,6.44
2023-11-13T14:08:17.480Z,6.47
2023-11-13T14:10:52.273Z,6.49
2023-11-13T14:13:23.235Z,6.50
2023-11-13T14:16:04.015Z,6.54
2023-11-13T14:18:37.395Z,6.51
2023-11-13T14:21:06.367Z,6.53
2023-11-13T14:23:33.996Z,6.54
2023-11-13T14:26:01.847Z,6.56
2023-11-13T14:28:29.512Z,6.60
2023-11-13T14:30:58.677Z,6.60
2023-11-13T14:33:27.363Z,6.62
2023-11-13T14:35:55.231Z,6.67
2023-11-13T14:38:22.870Z,6.66
2023-11-13T14:40:50.806Z,6.69
2023-11-13T14:43:18.507Z,6.73
2023-11-13T14:45:46.379Z,6.72
2023-11-13T14:48:15.791Z,6.79
2023-11-13T14:50:43.517Z,6.78
2023-11-13T14:53:11.161Z,6.83
2023-11-13T14:55:39.905Z,6.84
2023-11-13T14:58:07.636Z,6.85
2023-11-13T15:00:35.323Z,6.89
2023-11-13T15:03:03.577Z,6.92
2023-11-13T15:05:32.659Z,6.90
2023-11-13T15:08:00.322Z,6.91
2023-11-13T15:10:28.264Z,6.92
2023-11-13T15:12:56.016Z,6.91
2023-11-13T15:15:23.661Z,6.91
2023-11-13T15:17:52.122Z,6.92
2023-11-13T15:20:21.863Z,6.94
2023-11-13T15:23:09.004Z,6.95
2023-11-13T15:25:42.623Z,6.96
2023-11-13T15:28:11.432Z,7.01
2023-11-13T15:30:40.092Z,7.03
2023-11-13T15:33:09.393Z,7.04
2023-11-13T15:35:37.612Z,7.04
2023-11-13T15:38:06.570Z,7.08
2023-11-13T15:40:34.929Z,7.10
2023-11-13T15:43:03.120Z,7.12
2023-11-13T15:45:32.150Z,7.14
2023-11-13T15:48:00.774Z,7.14
2023-11-13T15:50:30.352Z,7.16
2023-11-13T15:52:58.167Z,7.22
2023-11-13T15:55:27.161Z,7.29
2023-11-13T15:57:54.804Z,7.32
2023-11-13T16:00:24.054Z,7.42
2023-11-13T16:02:51.851Z,7.48
2023-11-13T16:05:20.484Z,7.53
2023-11-13T16:07:49.228Z,7.56
2023-11-13T16:10:17.198Z,7.59
2023-11-13T16:12:47.281Z,7.64
2023-11-13T16:15:15.024Z,7.69
2023-11-13T16:17:43.713Z,7.72
2023-11-13T16:20:14.607Z,7.77
2023-11-13T16:22:45.129Z,7.82
2023-11-13T16:25:14.140Z,7.93
2023-11-13T16:27:42.218Z,7.97
2023-11-13T16:30:12.334Z,8.06
2023-11-13T16:32:41.245Z,8.10
2023-11-13T16:35:11.414Z,8.12
2023-11-13T16:37:39.592Z,8.22
2023-11-13T16:40:08.615Z,8.22
2023-11-13T16:42:38.083Z,8.21
2023-11-13T16:45:10.384Z,8.18
2023-11-13T16:47:39.457Z,8.15
2023-11-13T16:50:09.842Z,8.18
2023-11-13T16:52:39.138Z,8.20
2023-11-13T16:55:08.186Z,8.21
2023-11-13T16:57:37.724Z,8.21
2023-11-13T17:00:10.162Z,8.31
2023-11-13T17:02:41.400Z,8.34
2023-11-13T17:05:10.211Z,8.32
2023-11-13T17:07:38.122Z,8.35
2023-11-13T17:10:06.779Z,8.48
2023-11-13T17:12:34.538Z,8.57
2023-11-13T17:15:02.155Z,9.00
2023-11-13T17:17:30.143Z,9.22
2023-11-13T17:20:00.773Z,9.35
2023-11-13T17:22:30.942Z,9.44
2023-11-13T17:24:59.516Z,9.61
2023-11-13T17:27:27.752Z,9.71
2023-11-13T17:29:56.024Z,9.79
2023-11-13T17:32:23.813Z,9.90
2023-11-13T17:34:51.757Z,9.89
2023-11-13T17:37:20.816Z,9.93
2023-11-13T17:39:48.813Z,9.96
2023-11-13T17:42:16.755Z,10.08
2023-11-13T17:44:45.923Z,10.08
2023-11-13T17:47:15.945Z,10.15
2023-11-13T17:49:44.199Z,10.24
2023-11-13T17:52:12.214Z,10.27
2023-11-13T17:54:41.245Z,10.24
2023-11-13T17:57:11.689Z,10.36
2023-11-13T17:59:39.410Z,10.45
2023-11-13T18:02:09.004Z,10.53
2023-11-13T18:04:37.152Z,10.51
2023-11-13T18:07:05.441Z,10.62
2023-11-13T18:09:33.320Z,10.66
2023-11-13T18:12:02.373Z,10.66
2023-11-13T18:14:30.196Z,10.63
2023-11-13T18:16:57.970Z,10.62
2023-11-13T18:19:25.781Z,10.74
2023-11-13T18:21:53.847Z,10.75
2023-11-13T18:24:21.440Z,10.82
2023-11-13T18:26:49.535Z,10.88
2023-11-13T18:29:18.729Z,10.90
2023-11-13T18:31:47.556Z,10.89
2023-11-13T18:34:17.326Z,10.92
2023-11-13T18:36:45.219Z,10.96
2023-11-13T18:39:13.488Z,11.00
2023-11-13T18:41:41.065Z,11.02
2023-11-13T18:44:08.751Z,10.99
2023-11-13T18:46:38.222Z,11.07
2023-11-13T18:49:06.683Z,11.16
2023-11-13T18:51:34.348Z,11.13
2023-11-13T18:54:02.270Z,11.14
2023-11-13T18:56:29.913Z,11.15
2023-11-13T18:58:57.588Z,11.13
2023-11-13T19:01:27.898Z,11.09
2023-11-13T19:03:57.099Z,11.04
2023-11-13T19:06:24.818Z,11.20
2023-11-13T19:08:52.421Z,11.11
2023-11-13T19:11:20.483Z,11.12
2023-11-13T19:13:49.852Z,11.16
2023-11-13T19:16:17.744Z,11.25
2023-11-13T19:18:46.139Z,11.31
2023-11-13T19:21:15.282Z,11.34
2023-11-13T19:23:43.028Z,11.38
2023-11-13T19:26:11.178Z,11.43
2023-11-13T19:28:38.908Z,11.54
2023-11-13T19:31:07.004Z,11.54
2023-11-13T19:33:34.739Z,11.63
2023-11-13T19:36:02.706Z,11.67
2023-11-13T19:38:31.707Z,11.66
2023-11-13T19:40:59.537Z,11.82
2023-11-13T19:43:27.207Z,11.84
2023-11-13T19:45:54.899Z,11.81
2023-11-13T19:48:24.346Z,11.82
2023-11-13T19:50:54.040Z,11.84
2023-11-13T19:53:21.737Z,11.85
2023-11-13T19:55:50.854Z,11.84
2023-11-13T19:58:18.525Z,11.81
2023-11-13T20:00:47.972Z,11.87
2023-11-13T20:03:16.774Z,11.94
2023-11-13T20:05:44.683Z,11.99
2023-11-13T20:08:12.316Z,11.95
2023-11-13T20:10:40.570Z,11.92
2023-11-13T20:13:10.054Z,11.90
2023-11-13T20:15:38.025Z,11.90
2023-11-13T20:18:07.672Z,11.87
2023-11-13T20:20:36.472Z,11.96
2023-11-13T20:23:04.239Z,12.07
2023-11-13T20:25:34.477Z,12.10
2023-11-13T20:28:02.560Z,12.02
2023-11-13T20:30:31.488Z,11.93
2023-11-13T20:32:59.186Z,11.78
2023-11-13T20:35:28.141Z,11.51
2023-11-13T20:37:55.803Z,11.29
2023-11-13T20:40:24.061Z,11.23
2023-11-13T20:42:52.553Z,11.22
2023-11-13T20:45:20.463Z,11.29
2023-11-13T20:47:49.630Z,11.22
2023-11-13T20:50:19.262Z,11.04
2023-11-13T20:52:47.150Z,10.87
2023-11-13T20:55:15.054Z,10.74
2023-11-13T20:57:42.689Z,10.66
2023-11-13T21:00:12.748Z,10.63
2023-11-13T21:02:40.563Z,10.55
2023-11-13T21:05:10.125Z,10.41
2023-11-13T21:07:37.948Z,10.34
2023-11-13T21:10:09.310Z,10.27
2023-11-13T21:12:37.107Z,10.22
2023-11-13T21:15:05.641Z,10.15
2023-11-13T21:17:33.794Z,10.10
2023-11-13T21:20:04.188Z,10.00
2023-11-13T21:22:33.532Z,9.87
2023-11-13T21:25:01.418Z,9.78
2023-11-13T21:27:29.096Z,9.71
2023-11-13T21:29:56.730Z,9.69
2023-11-13T21:32:24.551Z,9.64
2023-11-13T21:34:53.119Z,9.66
2023-11-13T21:37:23.254Z,9.60
2023-11-13T21:39:52.277Z,9.62
2023-11-13T21:42:20.530Z,9.56
2023-11-13T21:44:48.179Z,9.53
2023-11-13T21:47:15.983Z,9.51
2023-11-13T21:49:43.672Z,9.49
2023-11-13T21:52:11.400Z,9.49
2023-11-13T21:54:39.071Z,9.50
2023-11-13T21:57:08.223Z,9.51
2023-11-13T21:59:35.923Z,9.52
2023-11-13T22:02:03.749Z,9.51
2023-11-13T22:04:31.557Z,9.50
2023-11-13T22:06:59.265Z,9.51
2023-11-13T22:09:26.900Z,9.52
2023-11-13T22:11:54.616Z,9.72
2023-11-13T22:14:23.671Z,9.65
2023-11-13T22:16:51.457Z,9.63
2023-11-13T22:19:20.492Z,9.52
2023-11-13T22:21:48.165Z,9.51
2023-11-13T22:24:16.957Z,9.75
2023-11-13T22:26:44.599Z,9.68
2023-11-13T22:29:12.230Z,9.64
2023-11-13T22:31:41.296Z,9.59
2023-11-13T22:34:09.873Z,9.57
2023-11-13T22:36:38.419Z,9.56
2023-11-13T22:39:06.128Z,9.58
2023-11-13T22:41:33.768Z,9.53
2023-11-13T22:44:01.661Z,9.44
2023-11-13T22:46:29.396Z,9.39
2023-11-13T22:48:59.160Z,9.40
2023-11-13T22:51:26.869Z,9.32
2023-11-13T22:53:54.500Z,9.26
2023-11-13T22:56:22.626Z,9.32
2023-11-13T22:58:52.981Z,9.32
2023-11-13T23:01:21.231Z,9.14
2023-11-13T23:03:49.810Z,9.07
2023-11-13T23:06:19.124Z,9.05
2023-11-13T23:08:47.006Z,9.02
2023-11-13T23:11:15.439Z,8.98
2023-11-13T23:13:43.547Z,8.93
2023-11-13T23:16:11.986Z,9.04
2023-11-13T23:18:39.615Z,8.95
2023-11-13T23:21:07.885Z,8.90
2023-11-13T23:23:36.887Z,8.77
2023-11-13T23:26:05.732Z,8.69
2023-11-13T23:28:33.391Z,8.74
2023-11-13T23:31:01.086Z,8.81
2023-11-13T23:33:28.789Z,8.82
2023-11-13T23:35:56.629Z,8.75
2023-11-13T23:38:25.259Z,8.67
2023-11-13T23:40:54.293Z,8.69
2023-11-13T23:43:21.948Z,8.69
2023-11-13T23:45:49.704Z,8.73
2023-11-13T23:48:17.416Z,8.67
2023-11-13T23:50:45.146Z,8.60
2023-11-13T23:53:13.395Z,8.57
2023-11-13T23:55:41.694Z,8.56
2023-11-13T23:58:11.132Z,8.61
